»·PEaware :: QXE2200 KMFR-KPDX

QXE2200 :: KMFR-KPDX

FLIGHT INFORMATION

Flight Status: Arrived
Operator:
Horizon Air
More flights by this operator :: More flights under this callsign
Pilot: Dave P. (45)
Aircraft: DEHAVILLAND DASH 8 400
(DH8D)
More flights by this aircraft type
Origin: KMFR Rogue Valley Intl-Medford
United States
Destination: KPDX Portland Intl
United States
More flights between these airports :: More routes between these airports
Route: +JKSN1 OED MOXEE PORTL TMBRS2
File this flight plan on PilotEdge
Remarks: RMK / SIMBRIEF
Altitude:
(Current/Filed)
22,000ft
Speed:
(Current/Filed)
316kts
Departed: 19-May-19 05:10 PM
Arrived: 19-May-19 06:02 PM
Distance/Time
Traveled:
193nm/0:52
Distance/Time
To Go:
Arrived

Flight Plot

Page will automatically refresh every two minutes.

Flight plan parsing failed; only flown route is shown


Map Options




Map Legend


Flown Route
Filed Route
Departure Airport
Arrival Airport
Navaid (VOR, NDB)
Fix

Horizontal Profiles

Position Reports

Time Latitude Longitude Heading Altitude Ground
Speed
19-May-19 16:28 42.371383 -122.876956 203 1342ft 0kts
19-May-19 16:29 42.371383 -122.876956 203 1342ft 0kts
19-May-19 16:30 42.371383 -122.876956 203 1342ft 0kts
19-May-19 16:31 42.371383 -122.876956 203 1342ft 0kts
19-May-19 16:32 42.371383 -122.876956 203 1342ft 0kts
19-May-19 16:33 42.371383 -122.876956 203 1342ft 0kts
19-May-19 16:34 42.371383 -122.876956 203 1342ft 0kts
19-May-19 16:35 42.371383 -122.876956 203 1342ft 0kts
19-May-19 16:36 42.371383 -122.876956 203 1342ft 0kts
19-May-19 16:37 42.371383 -122.876956 203 1342ft 0kts
19-May-19 16:38 42.371383 -122.876956 203 1342ft 0kts
19-May-19 16:39 42.371383 -122.876956 203 1342ft 0kts
19-May-19 16:40 42.371383 -122.876956 203 1342ft 0kts
19-May-19 16:41 42.371383 -122.876956 203 1342ft 0kts
19-May-19 16:42 42.371383 -122.876956 203 1342ft 0kts
19-May-19 16:43 42.371383 -122.876956 203 1342ft 0kts
19-May-19 16:44 42.371383 -122.876956 203 1342ft 0kts
19-May-19 16:45 42.371383 -122.876956 203 1342ft 0kts
19-May-19 16:46 42.371383 -122.876956 203 1342ft 0kts
19-May-19 16:47 42.371383 -122.876956 203 1342ft 0kts
19-May-19 16:48 42.371383 -122.876956 203 1342ft 0kts
19-May-19 16:49 42.371383 -122.876956 203 1342ft 0kts
19-May-19 16:50 42.371383 -122.876956 203 1342ft 0kts
19-May-19 16:51 42.371383 -122.876956 203 1342ft 0kts
19-May-19 16:52 42.371383 -122.876956 203 1342ft 0kts
19-May-19 16:53 42.371383 -122.876956 203 1342ft 0kts
19-May-19 16:54 42.371383 -122.876956 203 1342ft 0kts
19-May-19 16:55 42.371383 -122.876956 203 1342ft 0kts
19-May-19 16:56 42.371383 -122.876956 203 1342ft 0kts
19-May-19 16:57 42.371383 -122.876956 203 1342ft 0kts
19-May-19 16:58 42.371383 -122.876956 203 1342ft 0kts
19-May-19 16:59 42.371383 -122.876956 203 1342ft 0kts
19-May-19 17:00 42.371383 -122.876956 203 1342ft 0kts
19-May-19 17:01 42.371832 -122.876704 23 1342ft 0kts
19-May-19 17:02 42.371832 -122.876704 23 1342ft 0kts
19-May-19 17:03 42.371832 -122.876704 23 1342ft 0kts
19-May-19 17:04 42.371754 -122.875317 90 1342ft 2kts
19-May-19 17:05 42.375681 -122.875723 27 1342ft 13kts
19-May-19 17:06 42.381650 -122.878367 339 1342ft 24kts
19-May-19 17:07 42.385521 -122.879936 63 1342ft 3kts
19-May-19 17:08 42.385556 -122.879815 69 1342ft 0kts
19-May-19 17:09 42.377805 -122.874762 158 1349ft 124kts
19-May-19 17:10 42.340423 -122.852767 158 3842ft 170kts
19-May-19 17:11 42.311944 -122.888458 296 6528ft 189kts
19-May-19 17:13 42.358767 -122.921876 336 9679ft 201kts
19-May-19 17:14 42.421311 -122.923574 5 11028ft 267kts
19-May-19 17:15 42.492303 -122.911330 7 13594ft 244kts
19-May-19 17:16 42.560474 -122.904833 4 15573ft 248kts
19-May-19 17:17 42.630328 -122.898852 6 17255ft 254kts
19-May-19 17:18 42.701847 -122.891985 5 18682ft 261kts
19-May-19 17:19 42.775160 -122.885171 6 20001ft 267kts
19-May-19 17:20 42.850340 -122.878113 7 21150ft 273kts
19-May-19 17:21 42.927767 -122.870721 7 21834ft 293kts
19-May-19 17:22 43.013361 -122.862452 7 21866ft 323kts
19-May-19 17:23 43.105344 -122.853815 7 21865ft 339kts
19-May-19 17:24 43.200853 -122.844854 7 21865ft 348kts
19-May-19 17:25 43.297794 -122.835547 7 21864ft 352kts
19-May-19 17:26 43.395357 -122.826230 7 21866ft 353kts
19-May-19 17:27 43.493595 -122.816869 7 21863ft 355kts
19-May-19 17:28 43.592218 -122.807367 7 21862ft 356kts
19-May-19 17:29 43.690850 -122.797751 7 21865ft 357kts
19-May-19 17:30 43.789878 -122.788347 7 21866ft 357kts
19-May-19 17:30 43.872373 -122.780309 7 21866ft 357kts
19-May-19 17:32 43.987861 -122.768986 7 21867ft 357kts
19-May-19 17:33 44.086886 -122.759487 8 21866ft 357kts
19-May-19 17:33 44.169091 -122.751244 7 21867ft 357kts
19-May-19 17:34 44.266454 -122.741476 8 20432ft 341kts
19-May-19 17:36 44.373508 -122.730772 7 18518ft 323kts
19-May-19 17:36 44.446622 -122.723703 6 17283ft 309kts
19-May-19 17:37 44.529833 -122.715499 5 15854ft 292kts
19-May-19 17:38 44.608591 -122.707670 5 14446ft 270kts
19-May-19 17:39 44.683101 -122.700087 4 13120ft 277kts
19-May-19 17:40 44.759900 -122.692404 4 11746ft 283kts
19-May-19 17:41 44.838411 -122.684445 3 11043ft 277kts
19-May-19 17:42 44.915828 -122.676829 4 11017ft 280kts
19-May-19 17:43 44.993199 -122.669124 4 11010ft 276kts
19-May-19 17:44 45.066213 -122.648123 34 9025ft 275kts
19-May-19 17:45 45.126154 -122.583067 36 7335ft 265kts
19-May-19 17:46 45.181015 -122.524582 35 5146ft 239kts
19-May-19 17:47 45.232243 -122.469731 35 4032ft 223kts
19-May-19 17:48 45.281940 -122.415604 36 4009ft 229kts
19-May-19 17:49 45.335273 -122.368776 11 4004ft 224kts
19-May-19 17:50 45.394563 -122.343456 16 3871ft 216kts
19-May-19 17:51 45.451186 -122.336393 328 3050ft 200kts
19-May-19 17:52 45.492211 -122.376569 308 5654ft 151kts
19-May-19 17:53 45.516278 -122.425967 302 5084ft 187kts
19-May-19 17:54 45.540569 -122.484981 293 4968ft 170kts
19-May-19 17:55 45.518631 -122.535597 178 3889ft 179kts
19-May-19 17:56 45.471700 -122.528701 153 2934ft 167kts
19-May-19 17:57 45.481380 -122.485354 11 2984ft 159kts
19-May-19 17:58 45.525231 -122.503234 336 2164ft 156kts
19-May-19 17:59 45.557747 -122.529701 314 887ft 129kts
19-May-19 18:00 45.574827 -122.569496 300 333ft 111kts
19-May-19 18:01 45.586056 -122.597227 335 37ft 28kts

Navigation Log

Ident Type
Flight plan parsing failed, navigation log unavailable